createdAt,value
2024-02-17T00:00:39.901Z,82.98
2024-02-17T00:01:39.958Z,81.80
2024-02-17T00:02:39.901Z,81.42
2024-02-17T00:03:40.120Z,81.65
2024-02-17T00:04:40.068Z,83.52
2024-02-17T00:05:39.998Z,81.86
2024-02-17T00:06:40.064Z,80.95
2024-02-17T00:07:40.049Z,80.70
2024-02-17T00:08:40.163Z,79.61
2024-02-17T00:09:40.146Z,80.25
2024-02-17T00:10:40.142Z,81.33
2024-02-17T00:11:40.190Z,82.62
2024-02-17T00:12:40.268Z,79.77
2024-02-17T00:13:40.390Z,80.92
2024-02-17T00:14:40.320Z,82.15
2024-02-17T00:15:40.371Z,81.03
2024-02-17T00:16:40.378Z,83.46
2024-02-17T00:17:40.420Z,81.70
2024-02-17T00:18:40.532Z,81.91
2024-02-17T00:19:40.599Z,79.86
2024-02-17T00:20:40.623Z,80.26
2024-02-17T00:21:40.581Z,81.40
2024-02-17T00:22:40.593Z,82.89
2024-02-17T00:23:40.618Z,83.23
2024-02-17T00:24:40.722Z,80.47
2024-02-17T00:25:40.686Z,83.43
2024-02-17T00:26:40.740Z,80.85
2024-02-17T00:27:40.888Z,82.71
2024-02-17T00:28:40.796Z,81.12
2024-02-17T00:29:40.816Z,80.27
2024-02-17T00:30:40.986Z,81.76
2024-02-17T00:31:40.990Z,80.74
2024-02-17T00:32:40.932Z,82.30
2024-02-17T00:33:41.073Z,81.36
2024-02-17T00:34:41.150Z,81.70
2024-02-17T00:35:41.025Z,82.17
2024-02-17T00:36:41.163Z,80.67
2024-02-17T00:37:41.125Z,82.69
2024-02-17T00:38:41.173Z,83.17
2024-02-17T00:39:41.326Z,81.15
2024-02-17T00:40:41.224Z,83.11
2024-02-17T00:41:41.284Z,82.18
2024-02-17T00:42:41.454Z,81.48
2024-02-17T00:43:41.398Z,79.87
2024-02-17T00:44:41.378Z,80.36
2024-02-17T00:45:41.481Z,79.06
2024-02-17T00:46:41.513Z,79.46
2024-02-17T00:47:41.521Z,80.85
2024-02-17T00:48:41.691Z,82.21
2024-02-17T00:49:41.728Z,79.43
2024-02-17T00:50:41.595Z,81.09
2024-02-17T00:51:41.633Z,80.12
2024-02-17T00:52:41.661Z,81.98
2024-02-17T00:53:41.724Z,81.47
2024-02-17T00:54:41.790Z,81.43
2024-02-17T00:55:41.828Z,80.30
2024-02-17T00:56:41.829Z,79.66
2024-02-17T00:57:41.875Z,82.13
2024-02-17T00:58:41.886Z,80.72
2024-02-17T00:59:41.915Z,81.97
2024-02-17T01:00:42.130Z,81.18
2024-02-17T01:01:42.068Z,83.04
2024-02-17T01:02:42.035Z,83.08
2024-02-17T01:03:42.179Z,79.63
2024-02-17T01:04:42.155Z,81.61
2024-02-17T01:05:42.189Z,79.45
2024-02-17T01:06:42.376Z,83.34
2024-02-17T01:07:42.283Z,81.04
2024-02-17T01:08:42.284Z,80.93
2024-02-17T01:09:42.419Z,80.87
2024-02-17T01:10:43.230Z,79.34
2024-02-17T01:11:42.511Z,82.22
2024-02-17T01:12:42.563Z,80.25
2024-02-17T01:13:42.494Z,82.56
2024-02-17T01:14:42.580Z,82.40
2024-02-17T01:15:42.664Z,79.71
2024-02-17T01:16:42.663Z,81.84
2024-02-17T01:17:42.689Z,79.59
2024-02-17T01:18:42.847Z,79.88
2024-02-17T01:19:42.887Z,81.26
2024-02-17T01:20:42.787Z,80.83
2024-02-17T01:21:42.907Z,79.57
2024-02-17T01:22:42.886Z,81.53
2024-02-17T01:23:42.913Z,80.60
2024-02-17T01:24:43.076Z,80.37
2024-02-17T01:25:42.997Z,79.46
2024-02-17T01:26:43.085Z,81.16
2024-02-17T01:27:43.164Z,80.20
2024-02-17T01:28:43.093Z,81.05
2024-02-17T01:29:43.167Z,79.14
2024-02-17T01:30:43.217Z,81.55
2024-02-17T01:31:43.233Z,81.65
2024-02-17T01:32:43.321Z,79.62
2024-02-17T01:33:43.325Z,81.13
2024-02-17T01:34:43.355Z,81.31
2024-02-17T01:35:43.371Z,80.66
2024-02-17T01:36:43.473Z,81.81
2024-02-17T01:37:43.434Z,81.18
2024-02-17T01:38:43.468Z,82.05
2024-02-17T01:39:43.624Z,80.49
2024-02-17T01:40:43.577Z,80.62
2024-02-17T01:41:43.614Z,79.63
2024-02-17T01:42:43.734Z,83.54
2024-02-17T01:43:43.677Z,80.82
2024-02-17T01:44:43.770Z,82.39
2024-02-17T01:45:43.848Z,82.62
2024-02-17T01:46:43.791Z,81.08
2024-02-17T01:47:43.908Z,83.40
2024-02-17T01:48:44.145Z,81.86
2024-02-17T01:49:43.958Z,78.96
2024-02-17T01:50:43.920Z,81.88
2024-02-17T01:51:43.981Z,82.72
2024-02-17T01:52:44.018Z,81.42
2024-02-17T01:53:44.050Z,81.53
2024-02-17T01:54:44.145Z,81.75
2024-02-17T01:55:44.135Z,81.16
2024-02-17T01:56:44.143Z,81.51
2024-02-17T01:57:46.659Z,80.87
2024-02-17T01:58:44.255Z,83.09
2024-02-17T01:59:44.227Z,81.93
2024-02-17T02:00:44.282Z,80.12
2024-02-17T02:01:44.248Z,80.35
2024-02-17T02:02:44.197Z,82.00
2024-02-17T02:03:44.344Z,81.37
2024-02-17T02:04:44.421Z,80.11
2024-02-17T02:05:44.238Z,82.01
2024-02-17T02:06:44.244Z,82.72
2024-02-17T02:07:44.288Z,80.67
2024-02-17T02:08:44.234Z,83.18
2024-02-17T02:09:44.282Z,82.14
2024-02-17T02:10:44.289Z,81.31
2024-02-17T02:11:44.240Z,82.36
2024-02-17T02:12:44.323Z,82.56
2024-02-17T02:13:44.232Z,81.11
2024-02-17T02:14:44.296Z,80.32
2024-02-17T02:15:53.248Z,80.24
2024-02-17T02:16:45.221Z,80.35
2024-02-17T02:17:44.258Z,80.61
2024-02-17T02:18:44.300Z,81.75
2024-02-17T02:19:44.338Z,82.32
2024-02-17T02:20:44.216Z,82.79
2024-02-17T02:21:44.329Z,81.41
2024-02-17T02:22:44.235Z,82.36
2024-02-17T02:23:44.292Z,82.10
2024-02-17T02:24:44.349Z,81.16
2024-02-17T02:25:44.256Z,82.96
2024-02-17T02:26:44.269Z,82.79
2024-02-17T02:27:44.384Z,82.11
2024-02-17T02:28:44.267Z,82.01
2024-02-17T02:29:44.303Z,81.12
2024-02-17T02:30:44.516Z,81.16
2024-02-17T02:31:44.334Z,80.42
2024-02-17T02:32:44.419Z,81.65
2024-02-17T02:33:44.600Z,82.05
2024-02-17T02:34:44.545Z,81.46
2024-02-17T02:35:44.503Z,81.76
2024-02-17T02:36:44.680Z,82.74
2024-02-17T02:37:44.578Z,80.75
2024-02-17T02:38:44.683Z,83.29
2024-02-17T02:39:44.700Z,82.82
2024-02-17T02:40:44.751Z,81.78
2024-02-17T02:41:44.829Z,81.36
2024-02-17T02:42:44.907Z,81.92
2024-02-17T02:43:44.834Z,83.64
2024-02-17T02:44:44.921Z,81.40
2024-02-17T02:45:45.050Z,82.40
2024-02-17T02:46:45.049Z,81.16
2024-02-17T02:47:45.074Z,81.48
2024-02-17T02:48:45.158Z,83.14
2024-02-17T02:49:45.209Z,81.79
2024-02-17T02:50:45.192Z,81.00
2024-02-17T02:51:45.377Z,80.60
2024-02-17T02:52:45.366Z,81.89
2024-02-17T02:53:45.364Z,80.85
2024-02-17T02:54:45.419Z,80.96
2024-02-17T02:55:45.464Z,81.72
2024-02-17T02:56:45.488Z,82.35
2024-02-17T02:57:45.689Z,80.51
2024-02-17T02:58:45.606Z,81.22
2024-02-17T02:59:45.618Z,82.40
2024-02-17T03:00:45.983Z,81.70
2024-02-17T03:01:45.791Z,79.05
2024-02-17T03:02:45.800Z,83.43
2024-02-17T03:03:45.862Z,81.00
2024-02-17T03:04:45.894Z,81.24
2024-02-17T03:05:45.927Z,82.30
2024-02-17T03:06:45.932Z,81.53
2024-02-17T03:07:46.015Z,80.88
2024-02-17T03:08:45.975Z,80.02
2024-02-17T03:09:46.114Z,80.30
2024-02-17T03:10:46.132Z,83.15
2024-02-17T03:11:46.167Z,81.33
2024-02-17T03:12:46.241Z,80.65
2024-02-17T03:13:46.169Z,81.04
2024-02-17T03:14:46.228Z,80.93
2024-02-17T03:15:46.399Z,82.92
2024-02-17T03:16:46.380Z,82.04
2024-02-17T03:17:46.422Z,81.92
2024-02-17T03:18:46.495Z,81.15
2024-02-17T03:19:46.496Z,80.98
2024-02-17T03:20:46.499Z,82.34
2024-02-17T03:21:46.620Z,82.37
2024-02-17T03:22:46.622Z,82.34
2024-02-17T03:23:46.641Z,81.70
2024-02-17T03:24:46.754Z,82.53
2024-02-17T03:25:46.735Z,79.45
2024-02-17T03:26:46.768Z,82.54
2024-02-17T03:27:46.906Z,82.35
2024-02-17T03:28:46.854Z,83.15
2024-02-17T03:29:46.988Z,81.34
2024-02-17T03:30:47.050Z,79.79
2024-02-17T03:31:47.060Z,81.21
2024-02-17T03:32:47.112Z,82.30
2024-02-17T03:33:47.313Z,80.64
2024-02-17T03:34:47.433Z,80.84
2024-02-17T03:35:47.219Z,81.38
2024-02-17T03:36:47.357Z,81.73
2024-02-17T03:37:47.326Z,81.58
2024-02-17T03:38:47.361Z,81.13
2024-02-17T03:39:47.521Z,79.63
2024-02-17T03:40:47.439Z,79.74
2024-02-17T03:41:47.552Z,80.84
2024-02-17T03:42:47.672Z,80.11
2024-02-17T03:43:47.599Z,79.95
2024-02-17T03:44:47.677Z,80.95
2024-02-17T03:45:47.800Z,80.84
2024-02-17T03:46:47.781Z,81.43
2024-02-17T03:47:47.941Z,82.64
2024-02-17T03:48:48.067Z,80.54
2024-02-17T03:49:48.062Z,81.34
2024-02-17T03:50:47.968Z,81.93
2024-02-17T03:51:48.095Z,80.51
2024-02-17T03:52:48.069Z,80.29
2024-02-17T03:53:48.114Z,81.83
2024-02-17T03:54:48.235Z,83.14
2024-02-17T03:55:48.247Z,81.04
2024-02-17T03:56:48.309Z,82.07
2024-02-17T03:57:48.392Z,79.96
2024-02-17T03:58:48.449Z,81.82
2024-02-17T03:59:48.502Z,82.01
2024-02-17T04:00:48.637Z,81.89
2024-02-17T04:01:48.658Z,82.87
2024-02-17T04:02:48.712Z,81.38
2024-02-17T04:03:48.798Z,81.19
2024-02-17T04:04:48.775Z,79.64
2024-02-17T04:05:48.862Z,81.57
2024-02-17T04:06:49.083Z,81.42
2024-02-17T04:07:49.142Z,82.01
2024-02-17T04:08:48.991Z,80.10
2024-02-17T04:09:49.158Z,80.10
2024-02-17T04:10:49.269Z,81.85
2024-02-17T04:11:49.209Z,81.29
2024-02-17T04:12:49.253Z,80.06
2024-02-17T04:13:49.276Z,81.82
2024-02-17T04:14:49.402Z,80.02
2024-02-17T04:15:49.474Z,83.33
2024-02-17T04:16:49.422Z,83.59
2024-02-17T04:17:49.484Z,81.88
2024-02-17T04:18:49.695Z,79.26
2024-02-17T04:19:49.889Z,80.10
2024-02-17T04:20:49.620Z,82.10
2024-02-17T04:21:49.715Z,82.64
2024-02-17T04:22:49.769Z,78.24
2024-02-17T04:23:49.827Z,82.16
2024-02-17T04:24:49.896Z,82.34
2024-02-17T04:25:49.897Z,80.17
2024-02-17T04:26:50.072Z,80.75
2024-02-17T04:27:50.294Z,82.58
2024-02-17T04:28:50.119Z,81.71
2024-02-17T04:29:50.277Z,81.49
2024-02-17T04:30:50.257Z,82.04
2024-02-17T04:31:50.276Z,80.11
2024-02-17T04:32:50.332Z,80.08
2024-02-17T04:33:50.588Z,80.09
2024-02-17T04:34:50.616Z,81.20
2024-02-17T04:35:50.469Z,82.10
2024-02-17T04:36:50.547Z,81.96
2024-02-17T04:37:50.633Z,81.66
2024-02-17T04:38:50.674Z,81.40
2024-02-17T04:39:50.721Z,79.94
2024-02-17T04:40:50.764Z,81.50
2024-02-17T04:41:50.825Z,80.55
2024-02-17T04:42:58.402Z,50.00
2024-02-17T04:43:58.203Z,50.00
2024-02-17T04:44:58.129Z,50.00
2024-02-17T04:45:58.117Z,50.00
2024-02-17T04:46:58.158Z,50.00
2024-02-17T04:47:58.166Z,50.00
2024-02-17T04:48:58.253Z,53.66
2024-02-17T04:49:58.144Z,50.00
2024-02-17T04:50:58.128Z,51.61
2024-02-17T04:51:58.137Z,51.07
2024-02-17T04:52:58.136Z,52.89
2024-02-17T04:53:58.142Z,51.65
2024-02-17T04:54:58.113Z,52.17
2024-02-17T04:55:58.119Z,53.08
2024-02-17T04:56:58.190Z,51.07
2024-02-17T04:57:58.123Z,50.09
2024-02-17T04:58:58.148Z,50.00
2024-02-17T04:59:58.153Z,52.61
2024-02-17T05:00:58.599Z,53.31
2024-02-17T05:01:58.152Z,52.69
2024-02-17T05:02:58.130Z,49.74
2024-02-17T05:03:58.284Z,52.40
2024-02-17T05:04:58.222Z,52.92
2024-02-17T05:05:58.292Z,53.48
2024-02-17T05:06:58.379Z,52.71
2024-02-17T05:07:58.391Z,55.09
2024-02-17T05:08:58.436Z,54.50
2024-02-17T05:09:58.534Z,55.22
2024-02-17T05:10:58.579Z,52.15
2024-02-17T05:11:58.577Z,52.82
2024-02-17T05:12:58.894Z,51.98
2024-02-17T05:13:58.746Z,53.60
2024-02-17T05:14:58.815Z,54.23
2024-02-17T05:15:58.811Z,53.09
2024-02-17T05:16:58.887Z,55.78
2024-02-17T05:17:58.963Z,52.43
2024-02-17T05:18:58.990Z,52.66
2024-02-17T05:19:59.069Z,54.44
2024-02-17T05:20:59.176Z,52.83
2024-02-17T05:21:59.191Z,52.89
2024-02-17T05:22:59.209Z,53.53
2024-02-17T05:23:59.273Z,54.66
2024-02-17T05:24:59.363Z,52.54
2024-02-17T05:25:59.385Z,54.04
2024-02-17T05:26:59.445Z,53.45
2024-02-17T05:27:59.539Z,52.63
2024-02-17T05:28:59.581Z,53.28
2024-02-17T05:29:59.642Z,50.36
2024-02-17T05:30:59.716Z,51.45
2024-02-17T05:31:59.899Z,51.62
2024-02-17T05:32:59.831Z,53.17
2024-02-17T05:33:59.989Z,54.53
2024-02-17T05:35:00.511Z,53.77
2024-02-17T05:35:59.956Z,54.70
2024-02-17T05:37:00.016Z,54.33
2024-02-17T05:38:00.113Z,51.78
2024-02-17T05:39:00.136Z,53.25
2024-02-17T05:40:00.222Z,53.10
2024-02-17T05:41:00.273Z,54.11
2024-02-17T05:42:00.272Z,53.12
2024-02-17T05:43:00.427Z,54.43
2024-02-17T05:44:00.444Z,53.98
2024-02-17T05:45:00.479Z,52.79
2024-02-17T05:46:00.520Z,52.13
2024-02-17T05:47:00.631Z,54.92
2024-02-17T05:48:00.869Z,52.60
2024-02-17T05:49:00.938Z,54.43
2024-02-17T05:50:00.928Z,52.24
2024-02-17T05:51:00.830Z,56.90
2024-02-17T05:52:00.910Z,52.05
2024-02-17T05:53:00.947Z,56.34
2024-02-17T05:54:01.019Z,53.10
2024-02-17T05:55:01.215Z,51.92
2024-02-17T05:56:01.130Z,51.73
2024-02-17T05:57:01.168Z,54.54
2024-02-17T05:58:01.208Z,52.01
2024-02-17T05:59:01.265Z,53.40
2024-02-17T06:00:01.315Z,54.17
2024-02-17T06:01:01.555Z,51.72
2024-02-17T06:02:01.431Z,54.97
2024-02-17T06:03:01.490Z,53.82
2024-02-17T06:04:01.603Z,54.23
2024-02-17T06:05:01.941Z,53.37
2024-02-17T06:06:01.663Z,53.38
2024-02-17T06:07:01.765Z,53.20
2024-02-17T06:08:01.806Z,55.01
2024-02-17T06:09:01.892Z,53.82
2024-02-17T06:10:01.882Z,56.66
2024-02-17T06:11:02.033Z,52.91
2024-02-17T06:12:02.043Z,56.15
2024-02-17T06:13:02.100Z,55.66
2024-02-17T06:14:02.142Z,55.10
2024-02-17T06:15:02.182Z,51.93
2024-02-17T06:16:02.247Z,54.83
2024-02-17T06:17:02.304Z,55.52
2024-02-17T06:18:02.466Z,55.50
2024-02-17T06:19:02.581Z,55.74
2024-02-17T06:20:02.526Z,55.12
2024-02-17T06:21:02.526Z,54.21
2024-02-17T06:22:02.651Z,55.49
2024-02-17T06:23:02.713Z,52.98
2024-02-17T06:24:12.435Z,50.00
2024-02-17T06:25:12.395Z,50.00
2024-02-17T06:26:12.374Z,50.00
2024-02-17T06:27:12.444Z,50.00
2024-02-17T06:28:12.387Z,50.00
2024-02-17T06:29:12.403Z,51.51
2024-02-17T06:31:06.277Z,50.00
2024-02-17T06:32:06.242Z,50.00
2024-02-17T06:33:06.309Z,50.00
2024-02-17T06:34:06.345Z,50.00
2024-02-17T06:35:06.338Z,50.00
2024-02-17T06:36:06.292Z,52.06
2024-02-17T06:37:06.359Z,50.00
2024-02-17T06:38:06.267Z,51.23
2024-02-17T06:39:06.283Z,50.00
2024-02-17T06:40:06.280Z,52.62
2024-02-17T06:41:06.260Z,51.24
2024-02-17T06:42:06.270Z,53.37
2024-02-17T06:43:06.281Z,50.15
2024-02-17T06:44:06.269Z,53.25
2024-02-17T06:45:06.308Z,53.30
2024-02-17T06:46:06.289Z,51.29
2024-02-17T06:47:06.248Z,51.35
2024-02-17T06:48:06.312Z,51.73
2024-02-17T06:49:06.317Z,53.22
2024-02-17T06:50:06.328Z,51.59
2024-02-17T06:51:06.329Z,51.46
2024-02-17T06:52:06.265Z,51.51
2024-02-17T06:53:06.325Z,50.72
2024-02-17T06:54:06.436Z,53.46
2024-02-17T06:55:06.433Z,50.89
2024-02-17T06:56:06.512Z,50.87
2024-02-17T06:57:06.607Z,52.13
2024-02-17T06:58:06.630Z,50.00
2024-02-17T06:59:06.680Z,54.67
2024-02-17T07:00:06.789Z,50.73
2024-02-17T07:01:06.852Z,52.77
2024-02-17T07:02:06.894Z,50.55
2024-02-17T07:03:06.933Z,53.09
2024-02-17T07:04:07.091Z,53.83
2024-02-17T07:05:07.088Z,53.47
2024-02-17T07:06:07.344Z,53.09
2024-02-17T07:07:07.198Z,52.58
2024-02-17T07:08:07.210Z,52.48
2024-02-17T07:09:07.348Z,52.62
2024-02-17T07:10:07.377Z,54.32
2024-02-17T07:11:07.437Z,51.98
2024-02-17T07:12:07.599Z,52.61
2024-02-17T07:13:07.535Z,52.09
2024-02-17T07:14:07.559Z,53.17
2024-02-17T07:15:07.684Z,51.68
2024-02-17T07:16:07.783Z,53.60
2024-02-17T07:17:07.754Z,52.63
2024-02-17T07:18:07.933Z,53.39
2024-02-17T07:19:07.948Z,51.52
2024-02-17T07:20:08.121Z,52.51
2024-02-17T07:21:08.050Z,52.97
2024-02-17T07:22:08.025Z,52.11
2024-02-17T07:23:08.143Z,52.48
2024-02-17T07:24:08.218Z,52.07
2024-02-17T07:25:08.245Z,54.90
2024-02-17T07:26:08.314Z,53.65
2024-02-17T07:27:08.388Z,54.53
2024-02-17T07:28:08.415Z,51.02
2024-02-17T07:29:08.465Z,54.50
2024-02-17T07:30:08.619Z,53.51
2024-02-17T07:31:08.597Z,52.87
2024-02-17T07:32:08.684Z,54.12
2024-02-17T07:33:08.792Z,53.63
2024-02-17T07:34:08.858Z,52.13
2024-02-17T07:35:08.934Z,53.01
2024-02-17T07:36:08.981Z,52.38
2024-02-17T07:37:08.954Z,52.96
2024-02-17T07:38:09.020Z,51.72
2024-02-17T07:39:09.160Z,53.76
2024-02-17T07:40:09.151Z,52.83
2024-02-17T07:41:09.199Z,53.53
2024-02-17T07:42:09.317Z,55.47
2024-02-17T07:43:09.318Z,54.71
2024-02-17T07:44:09.362Z,52.90
2024-02-17T07:45:09.546Z,51.49
2024-02-17T07:46:09.477Z,54.86
2024-02-17T07:47:09.552Z,53.78
2024-02-17T07:48:09.728Z,53.25
2024-02-17T07:49:09.727Z,54.01
2024-02-17T07:50:09.947Z,53.34
2024-02-17T07:51:09.837Z,53.37
2024-02-17T07:52:09.836Z,53.87
2024-02-17T07:53:09.917Z,53.32
2024-02-17T07:54:10.016Z,53.31
2024-02-17T07:55:10.071Z,52.37
2024-02-17T07:56:10.085Z,52.05
2024-02-17T07:57:10.185Z,53.61
2024-02-17T07:58:10.213Z,56.72
2024-02-17T07:59:10.276Z,52.96
2024-02-17T08:00:11.698Z,54.10
2024-02-17T08:01:10.479Z,53.73
2024-02-17T08:02:10.343Z,54.80
2024-02-17T08:03:10.398Z,53.02
2024-02-17T08:04:10.462Z,54.15
2024-02-17T08:05:10.439Z,55.76
2024-02-17T08:06:10.477Z,53.32
2024-02-17T08:07:10.437Z,55.51
2024-02-17T08:08:10.345Z,53.39
2024-02-17T08:09:10.377Z,54.37
2024-02-17T08:10:10.346Z,55.43
2024-02-17T08:11:10.433Z,54.67
2024-02-17T08:12:10.377Z,53.52
2024-02-17T08:13:10.354Z,52.12
2024-02-17T08:14:10.367Z,54.67
2024-02-17T08:15:10.409Z,52.93
2024-02-17T08:16:10.357Z,52.57
2024-02-17T08:17:10.319Z,55.14
2024-02-17T08:18:10.513Z,53.54
2024-02-17T08:19:10.568Z,53.93
2024-02-17T08:20:10.643Z,53.88
2024-02-17T08:21:10.411Z,54.28
2024-02-17T08:22:10.354Z,53.41
2024-02-17T08:23:10.348Z,51.67
2024-02-17T08:24:10.392Z,53.92
2024-02-17T08:25:10.532Z,52.31
2024-02-17T08:26:10.379Z,52.11
2024-02-17T08:27:10.455Z,53.37
2024-02-17T08:28:10.488Z,52.41
2024-02-17T08:29:10.390Z,53.52
2024-02-17T08:30:10.418Z,53.77
2024-02-17T08:31:10.349Z,51.64
2024-02-17T08:32:10.404Z,55.05
2024-02-17T08:33:10.502Z,54.36
2024-02-17T08:34:10.555Z,50.81
2024-02-17T08:35:10.539Z,53.57
2024-02-17T08:36:10.440Z,53.63
2024-02-17T08:37:10.393Z,54.50
2024-02-17T08:38:10.342Z,53.67
2024-02-17T08:39:10.453Z,54.47
2024-02-17T08:40:10.412Z,54.74
2024-02-17T08:41:10.371Z,53.62
2024-02-17T08:42:10.396Z,52.90
2024-02-17T08:43:10.384Z,53.42
2024-02-17T08:44:13.229Z,52.27
2024-02-17T08:45:10.442Z,52.34
2024-02-17T08:46:10.358Z,52.78
2024-02-17T08:47:10.402Z,53.52
2024-02-17T08:48:10.483Z,54.13
2024-02-17T08:49:10.491Z,52.50
2024-02-17T08:50:10.381Z,53.79
2024-02-17T08:51:10.531Z,52.63
2024-02-17T08:52:10.390Z,55.15
2024-02-17T08:53:10.426Z,51.31
2024-02-17T08:54:10.434Z,55.22
2024-02-17T08:55:10.386Z,53.14
2024-02-17T08:56:10.424Z,53.62
2024-02-17T08:57:10.419Z,52.97
2024-02-17T08:58:10.392Z,51.99
2024-02-17T08:59:10.390Z,52.42
2024-02-17T09:00:10.428Z,53.94
2024-02-17T09:01:10.512Z,53.15
2024-02-17T09:02:10.421Z,52.29
2024-02-17T09:03:10.445Z,53.53
2024-02-17T09:04:10.545Z,53.66
2024-02-17T09:05:10.400Z,54.73
2024-02-17T09:06:10.389Z,54.78
2024-02-17T09:07:10.478Z,55.25
2024-02-17T09:08:10.409Z,53.24
2024-02-17T09:09:10.471Z,54.70
2024-02-17T09:10:10.406Z,52.89
2024-02-17T09:11:10.440Z,52.88
2024-02-17T09:12:10.540Z,54.23
2024-02-17T09:13:10.444Z,54.40
2024-02-17T09:14:10.396Z,53.12
2024-02-17T09:15:10.459Z,53.14
2024-02-17T09:16:10.408Z,53.76
2024-02-17T09:17:10.468Z,53.63
2024-02-17T09:18:10.546Z,54.24
2024-02-17T09:19:10.591Z,53.74
2024-02-17T09:20:10.686Z,53.87
2024-02-17T09:21:10.654Z,54.44
2024-02-17T09:22:10.665Z,55.04
2024-02-17T09:23:10.661Z,54.86
2024-02-17T09:24:10.796Z,53.94
2024-02-17T09:25:10.796Z,54.30
2024-02-17T09:26:10.780Z,54.00
2024-02-17T09:27:10.906Z,53.74
2024-02-17T09:28:10.874Z,53.22
2024-02-17T09:29:10.903Z,57.59
2024-02-17T09:30:11.014Z,55.20
2024-02-17T09:31:10.975Z,55.02
2024-02-17T09:32:11.056Z,54.28
2024-02-17T09:33:11.103Z,52.25
2024-02-17T09:34:11.240Z,55.38
2024-02-17T09:35:11.350Z,53.84
2024-02-17T09:36:11.198Z,53.79
2024-02-17T09:37:11.215Z,55.42
2024-02-17T09:38:11.239Z,54.57
2024-02-17T09:39:11.320Z,56.27
2024-02-17T09:40:11.287Z,53.83
2024-02-17T09:41:11.339Z,54.98
2024-02-17T09:42:11.367Z,54.97
2024-02-17T09:43:11.367Z,53.63
2024-02-17T09:44:11.399Z,54.88
2024-02-17T09:45:11.469Z,54.96
2024-02-17T09:46:11.478Z,55.45
2024-02-17T09:47:11.553Z,54.44
2024-02-17T09:48:11.669Z,52.71
2024-02-17T09:49:14.304Z,56.26
2024-02-17T09:50:11.672Z,53.86
2024-02-17T09:51:11.619Z,54.77
2024-02-17T09:52:11.578Z,56.04
2024-02-17T09:53:11.571Z,55.02
2024-02-17T09:54:11.633Z,51.80
2024-02-17T09:55:11.600Z,54.07
2024-02-17T09:56:11.576Z,54.86
2024-02-17T09:57:11.622Z,53.21
2024-02-17T09:58:11.595Z,56.32
2024-02-17T09:59:11.617Z,53.01
2024-02-17T10:00:11.627Z,54.45
2024-02-17T10:01:11.700Z,52.97
2024-02-17T10:02:11.591Z,54.98
2024-02-17T10:03:11.714Z,53.54
2024-02-17T10:04:11.627Z,55.05
2024-02-17T10:05:11.706Z,55.64
2024-02-17T10:06:11.789Z,55.19
2024-02-17T10:07:11.615Z,53.42
2024-02-17T10:08:11.600Z,54.65
2024-02-17T10:09:11.599Z,54.76
2024-02-17T10:10:11.606Z,56.96
2024-02-17T10:11:11.565Z,56.12
2024-02-17T10:12:11.667Z,55.77
2024-02-17T10:13:11.612Z,55.79
2024-02-17T10:14:11.606Z,55.05
2024-02-17T10:15:11.630Z,55.82
2024-02-17T10:16:11.627Z,54.98
2024-02-17T10:17:11.583Z,56.12
2024-02-17T10:18:11.699Z,56.80
2024-02-17T10:19:11.666Z,55.66
2024-02-17T10:20:11.712Z,55.39
2024-02-17T10:21:11.665Z,55.01
2024-02-17T10:22:11.592Z,53.56
2024-02-17T10:23:11.590Z,54.41
2024-02-17T10:24:11.614Z,54.70
2024-02-17T10:25:11.658Z,54.96
2024-02-17T10:26:11.767Z,54.23
2024-02-17T10:27:11.602Z,54.46
2024-02-17T10:28:11.590Z,55.12
2024-02-17T10:29:11.630Z,54.56
2024-02-17T10:30:11.623Z,54.83
2024-02-17T10:31:11.664Z,54.83
2024-02-17T10:32:11.633Z,56.30
2024-02-17T10:33:11.889Z,54.49
2024-02-17T10:34:11.680Z,55.22
2024-02-17T10:35:11.663Z,53.32
2024-02-17T10:36:11.699Z,53.40
2024-02-17T10:37:11.620Z,52.85
2024-02-17T10:38:11.621Z,54.17
2024-02-17T10:39:11.668Z,52.71
2024-02-17T10:40:11.739Z,54.77
2024-02-17T10:41:11.623Z,55.96
2024-02-17T10:42:11.621Z,53.40
2024-02-17T10:43:11.620Z,54.48
2024-02-17T10:44:12.315Z,52.89
2024-02-17T10:45:11.766Z,54.27
2024-02-17T10:46:11.737Z,51.78
2024-02-17T10:47:11.728Z,52.93
2024-02-17T10:48:11.950Z,53.43
2024-02-17T10:49:11.712Z,52.57
2024-02-17T10:50:13.827Z,53.00
2024-02-17T10:51:11.648Z,52.96
2024-02-17T10:52:11.640Z,53.30
2024-02-17T10:53:11.635Z,53.15
2024-02-17T10:54:11.699Z,54.46
2024-02-17T10:55:11.646Z,54.96
2024-02-17T10:56:13.255Z,53.00
2024-02-17T10:57:11.666Z,53.02
2024-02-17T10:58:11.707Z,53.41
2024-02-17T10:59:11.687Z,52.84
2024-02-17T11:00:11.636Z,53.35
2024-02-17T11:01:11.732Z,53.50
2024-02-17T11:02:12.750Z,54.33
2024-02-17T11:03:11.720Z,55.17
2024-02-17T11:04:11.736Z,54.72
2024-02-17T11:05:11.790Z,54.97
2024-02-17T11:06:11.780Z,53.01
2024-02-17T11:07:11.676Z,53.22
2024-02-17T11:08:11.634Z,53.88
2024-02-17T11:09:12.932Z,52.98
2024-02-17T11:10:11.638Z,53.13
2024-02-17T11:11:11.680Z,53.90
2024-02-17T11:12:11.684Z,53.88
2024-02-17T11:13:11.654Z,54.76
2024-02-17T11:14:11.684Z,54.11
2024-02-17T11:15:11.678Z,54.10
2024-02-17T11:16:11.831Z,54.11
2024-02-17T11:17:11.746Z,53.38
2024-02-17T11:18:11.795Z,53.35
2024-02-17T11:19:11.905Z,52.29
2024-02-17T11:20:11.865Z,54.50
2024-02-17T11:21:11.698Z,53.98
2024-02-17T11:22:11.816Z,53.68
2024-02-17T11:23:11.696Z,52.42
2024-02-17T11:24:12.063Z,54.25
2024-02-17T11:25:11.723Z,51.57
2024-02-17T11:26:12.498Z,54.31
2024-02-17T11:27:11.759Z,56.36
2024-02-17T11:28:11.652Z,53.51
2024-02-17T11:29:11.622Z,53.76
2024-02-17T11:30:11.968Z,53.05
2024-02-17T11:31:11.838Z,53.94
2024-02-17T11:32:11.656Z,53.26
2024-02-17T11:33:11.737Z,53.21
2024-02-17T11:34:11.804Z,53.19
2024-02-17T11:35:11.759Z,54.60
2024-02-17T11:36:12.181Z,53.41
2024-02-17T11:37:11.780Z,53.76
2024-02-17T11:38:11.687Z,53.46
2024-02-17T11:39:13.658Z,53.63
2024-02-17T11:40:11.763Z,54.83
2024-02-17T11:41:11.653Z,52.12
2024-02-17T11:42:11.694Z,55.51
2024-02-17T11:43:11.671Z,55.75
2024-02-17T11:44:11.717Z,55.27
2024-02-17T11:45:11.749Z,54.35
2024-02-17T11:46:11.669Z,52.92
2024-02-17T11:47:11.659Z,51.73
2024-02-17T11:48:11.841Z,54.20
2024-02-17T11:49:11.828Z,52.43
2024-02-17T11:50:11.730Z,54.61
2024-02-17T11:51:11.713Z,53.23
2024-02-17T11:52:11.741Z,56.01
2024-02-17T11:53:11.694Z,55.30
2024-02-17T11:54:11.710Z,53.78
2024-02-17T11:55:11.721Z,56.10
2024-02-17T11:56:11.704Z,54.67
2024-02-17T11:57:11.793Z,54.34
2024-02-17T11:58:11.729Z,54.11
2024-02-17T11:59:11.748Z,55.65
2024-02-17T12:00:11.718Z,57.01
2024-02-17T12:01:11.797Z,56.01
2024-02-17T12:02:11.780Z,54.15
2024-02-17T12:03:11.734Z,55.10
2024-02-17T12:04:11.793Z,54.45
2024-02-17T12:05:11.796Z,54.84
2024-02-17T12:06:11.790Z,56.14
2024-02-17T12:07:11.793Z,55.48
2024-02-17T12:08:11.698Z,55.42
2024-02-17T12:09:11.776Z,54.14
2024-02-17T12:10:11.739Z,54.76
2024-02-17T12:11:11.825Z,56.99
2024-02-17T12:12:11.821Z,54.58
2024-02-17T12:13:11.765Z,57.01
2024-02-17T12:14:11.808Z,55.50
2024-02-17T12:15:11.899Z,55.25
2024-02-17T12:16:12.614Z,53.54
2024-02-17T12:17:11.870Z,58.41
2024-02-17T12:18:12.042Z,54.52
2024-02-17T12:19:12.065Z,54.52
2024-02-17T12:20:12.005Z,57.07
2024-02-17T12:21:12.709Z,54.79
2024-02-17T12:22:12.002Z,56.83
2024-02-17T12:23:11.979Z,54.34
2024-02-17T12:24:12.035Z,56.22
2024-02-17T12:25:12.118Z,57.22
2024-02-17T12:26:20.250Z,56.00
2024-02-17T12:27:13.100Z,56.05
2024-02-17T12:28:12.076Z,56.21
2024-02-17T12:29:12.100Z,56.46
2024-02-17T12:30:12.088Z,56.87
2024-02-17T12:31:12.101Z,57.01
2024-02-17T12:32:12.099Z,56.29
2024-02-17T12:33:12.293Z,57.32
2024-02-17T12:34:12.349Z,56.54
2024-02-17T12:35:12.270Z,55.48
2024-02-17T12:36:12.087Z,54.03
2024-02-17T12:37:12.070Z,55.54
2024-02-17T12:38:12.103Z,56.36
2024-02-17T12:39:12.098Z,55.48
2024-02-17T12:40:12.110Z,53.54
2024-02-17T12:41:12.110Z,55.87
2024-02-17T12:42:12.073Z,54.86
2024-02-17T12:43:12.097Z,56.66
2024-02-17T12:44:12.131Z,57.03
2024-02-17T12:45:12.202Z,54.65
2024-02-17T12:46:12.185Z,55.23
2024-02-17T12:47:12.205Z,54.68
2024-02-17T12:48:12.479Z,57.13
2024-02-17T12:49:12.344Z,55.22
2024-02-17T12:50:12.418Z,55.33
2024-02-17T12:51:12.351Z,56.29
2024-02-17T12:52:12.330Z,54.98
2024-02-17T12:53:12.367Z,54.66
2024-02-17T12:54:12.416Z,54.17